KAIK/AIK METAR and TAF weather

Enter ICAO airport designator
Station Type Date Time Source
KAIK METAR 2018/04/21 20:55 UTC NOAA

KAIK 212055Z AUTO 09006KT 10SM SCT075 22/00 A3031 RMK AO2


Station Type Date Time Source
KAIK Decoded METAR 2018/04/21 20:55 UTC NOAA

Station name not available
Apr 21, 2018 - 04:55 PM EDT / 2018.04.21 2055 UTC
Wind: from the E (090 degrees) at 7 MPH (6 KT):0
Visibility: 10 mile(s):0
Sky conditions: partly cloudy
Temperature: 71 F (22 C)
Dew Point: 32 F (0 C)
Relative Humidity: 23%
Pressure (altimeter): 30.31 in. Hg (1026 hPa)
ob: KAIK 212055Z AUTO 09006KT 10SM SCT075 22/00 A3031 RMK AO2
cycle: 21

Station Type Date Time Source
KAIK TAF UTC NOAA

Error!


Example: see airport list